Time;durP1;ratioP1;P1;durP2;ratioP2;P2;SDS_P1;SDS_P2;PMS_P1;PMS_P2;Temp;Humidity;BMP_temperature;BMP_pressure;BME280_temperature;BME280_humidity;BME280_pressure;Samples;Min_cycle;Max_cycle;Signal;HPM_P1;HPM_P2
2023/05/09 00:02:18;;;;;;;5.50;2.07;;;10.50;74.10;;;;;;5057977;28;20231;-75
2023/05/09 00:04:45;;;;;;;2.30;1.73;;;10.50;74.30;;;;;;5061414;28;20222;-75
2023/05/09 00:07:12;;;;;;;2.87;1.80;;;10.40;74.20;;;;;;5062084;28;20220;-75
2023/05/09 00:09:38;;;;;;;2.83;2.20;;;10.40;74.70;;;;;;5061724;28;20254;-75
2023/05/09 00:12:06;;;;;;;4.10;1.87;;;10.40;74.90;;;;;;5062351;28;20757;-75
2023/05/09 00:14:33;;;;;;;10.83;2.30;;;10.30;75.20;;;;;;5062539;28;20238;-75
2023/05/09 00:17:01;;;;;;;4.07;2.17;;;10.30;75.40;;;;;;5063432;28;20227;-75
2023/05/09 00:19:28;;;;;;;3.90;2.30;;;10.20;76.50;;;;;;5063195;28;20934;-75
2023/05/09 00:21:55;;;;;;;2.93;2.20;;;10.20;75.80;;;;;;5062602;28;21221;-75
2023/05/09 00:24:22;;;;;;;5.03;2.47;;;10.10;76.60;;;;;;5058527;28;20211;-75
2023/05/09 00:26:49;;;;;;;6.30;3.13;;;10.10;76.90;;;;;;5063500;28;20235;-75
2023/05/09 00:29:16;;;;;;;3.17;2.13;;;10.00;77.70;;;;;;5061912;28;20243;-75
2023/05/09 00:31:43;;;;;;;3.17;2.03;;;10.00;77.60;;;;;;5060236;28;20575;-75
2023/05/09 00:34:11;;;;;;;4.27;2.17;;;9.90;78.30;;;;;;5060657;28;20231;-76
2023/05/09 00:36:38;;;;;;;5.10;2.47;;;9.90;78.00;;;;;;5063370;28;20239;-75
2023/05/09 00:39:05;;;;;;;3.57;2.07;;;9.90;77.40;;;;;;5058303;28;20227;-75
2023/05/09 00:41:31;;;;;;;3.93;2.30;;;9.90;78.40;;;;;;5056923;28;21040;-76
2023/05/09 00:43:58;;;;;;;3.53;2.43;;;9.80;79.00;;;;;;5062505;28;20215;-76
2023/05/09 00:46:25;;;;;;;4.90;2.30;;;9.80;78.90;;;;;;5061585;28;21078;-75
2023/05/09 00:48:52;;;;;;;5.50;2.20;;;9.80;79.10;;;;;;5061120;28;20699;-75
2023/05/09 00:55:13;;;;;;;2.97;2.00;;;9.70;78.80;;;;;;4985361;28;20289;-95
2023/05/09 00:57:42;;;;;;;3.63;2.23;;;9.60;78.70;;;;;;4974711;28;20199;-96
2023/05/09 01:00:14;;;;;;;3.73;2.13;;;9.60;78.60;;;;;;5024719;28;20227;-96
2023/05/09 01:02:47;;;;;;;3.80;2.27;;;9.60;79.10;;;;;;5037516;28;20216;-96
2023/05/09 01:05:15;;;;;;;6.53;2.53;;;9.50;79.70;;;;;;5023792;23;20224;-81
2023/05/09 01:07:47;;;;;;;3.43;2.20;;;9.50;80.20;;;;;;5005953;28;20225;-81
2023/05/09 01:10:23;;;;;;;3.37;2.60;;;9.40;80.50;;;;;;5006148;28;20225;-81
2023/05/09 01:12:58;;;;;;;3.13;2.13;;;9.40;81.00;;;;;;5040320;28;20310;-81
2023/05/09 01:15:39;;;;;;;4.50;2.30;;;9.40;81.40;;;;;;5024870;28;20227;-80
2023/05/09 01:18:11;;;;;;;4.67;2.40;;;9.30;81.20;;;;;;5042114;28;20652;-81
2023/05/09 01:20:44;;;;;;;4.33;2.60;;;9.30;81.70;;;;;;5023658;28;20255;-81
2023/05/09 01:23:25;;;;;;;3.90;2.50;;;9.30;82.10;;;;;;5038992;28;20251;-81
2023/05/09 01:26:03;;;;;;;3.60;2.70;;;9.20;82.00;;;;;;5022188;28;20718;-81
2023/05/09 01:28:44;;;;;;;2.53;2.33;;;9.20;82.70;;;;;;5027066;28;20307;-82
2023/05/09 01:31:12;;;;;;;5.80;2.40;;;9.20;83.10;;;;;;5043639;28;20228;-82
2023/05/09 01:33:42;;;;;;;6.00;2.40;;;9.10;82.70;;;;;;5044484;28;20754;-82
2023/05/09 01:36:15;;;;;;;4.60;3.03;;;9.10;82.70;;;;;;5025940;28;20226;-82
2023/05/09 01:38:43;;;;;;;2.63;2.20;;;9.00;83.10;;;;;;5042267;28;20823;-82
2023/05/09 01:41:13;;;;;;;5.10;2.60;;;9.00;83.00;;;;;;5020965;28;20581;-81
2023/05/09 01:43:40;;;;;;;3.57;2.53;;;8.90;83.50;;;;;;5043837;28;20224;-82
2023/05/09 01:46:08;;;;;;;3.73;2.60;;;8.90;83.70;;;;;;5048396;28;20232;-82
2023/05/09 01:48:39;;;;;;;4.57;2.80;;;8.80;84.30;;;;;;5044061;28;20327;-81
2023/05/09 01:51:07;;;;;;;2.90;2.30;;;8.80;84.80;;;;;;5039430;28;20243;-82
2023/05/09 01:53:35;;;;;;;4.20;2.50;;;8.80;84.70;;;;;;5027880;28;20349;-82
2023/05/09 01:56:04;;;;;;;3.13;2.70;;;8.70;85.60;;;;;;5035174;28;20255;-82
2023/05/09 01:58:33;;;;;;;4.10;2.73;;;8.70;86.30;;;;;;5029892;28;20240;-82
2023/05/09 02:01:01;;;;;;;4.33;2.40;;;8.60;85.90;;;;;;5042433;28;20244;-82
2023/05/09 02:03:28;;;;;;;3.83;2.70;;;8.60;86.20;;;;;;5041915;28;20222;-82
2023/05/09 02:05:57;;;;;;;3.13;2.73;;;8.50;86.40;;;;;;5024576;28;20749;-81
2023/05/09 02:08:25;;;;;;;3.27;2.80;;;8.50;87.00;;;;;;5023392;28;20243;-82
2023/05/09 02:10:51;;;;;;;3.77;2.93;;;8.50;87.00;;;;;;5042546;28;20803;-83
2023/05/09 02:13:18;;;;;;;5.33;3.00;;;8.40;87.40;;;;;;5024193;28;20225;-83
2023/05/09 02:15:46;;;;;;;4.37;2.93;;;8.40;87.60;;;;;;5041608;28;20228;-83
2023/05/09 02:18:13;;;;;;;4.27;3.10;;;8.30;88.10;;;;;;5022625;28;20224;-82
2023/05/09 02:20:40;;;;;;;4.23;2.83;;;8.30;88.60;;;;;;5025004;28;20770;-82
2023/05/09 02:23:08;;;;;;;5.20;2.90;;;8.20;88.90;;;;;;5024556;28;20222;-82
2023/05/09 02:25:36;;;;;;;4.33;3.00;;;8.20;90.00;;;;;;5041520;28;20230;-81
2023/05/09 02:28:03;;;;;;;3.50;3.03;;;8.10;89.90;;;;;;5020128;28;20231;-81
2023/05/09 02:30:36;;;;;;;6.13;3.07;;;8.10;90.10;;;;;;5037760;28;20946;-81
2023/05/09 02:33:06;;;;;;;4.47;3.27;;;8.10;91.10;;;;;;5025043;28;20227;-81
2023/05/09 02:35:35;;;;;;;4.83;3.00;;;8.00;90.80;;;;;;5025448;28;20310;-83
2023/05/09 02:38:02;;;;;;;4.23;2.93;;;8.00;91.00;;;;;;5040655;28;20231;-81
2023/05/09 02:40:31;;;;;;;4.47;3.13;;;8.00;91.30;;;;;;5042653;28;20234;-81
2023/05/09 02:42:58;;;;;;;4.90;3.50;;;8.00;91.20;;;;;;5025196;28;20843;-82
2023/05/09 02:45:25;;;;;;;3.20;2.90;;;8.00;91.10;;;;;;5041644;28;20323;-83
2023/05/09 02:47:52;;;;;;;4.23;3.43;;;7.90;91.30;;;;;;5024792;28;20222;-81
2023/05/09 02:50:19;;;;;;;5.93;3.40;;;7.90;91.40;;;;;;5042329;28;20212;-81
2023/05/09 02:52:46;;;;;;;4.30;3.23;;;7.90;91.60;;;;;;5024186;28;20226;-81
2023/05/09 02:55:13;;;;;;;5.00;3.30;;;7.90;91.80;;;;;;5020361;28;20228;-82
2023/05/09 02:57:43;;;;;;;4.73;3.73;;;7.80;91.90;;;;;;5027797;28;20229;-81
2023/05/09 03:00:11;;;;;;;4.40;3.33;;;7.80;92.10;;;;;;5038849;28;20254;-80
2023/05/09 03:02:39;;;;;;;4.13;3.43;;;7.80;92.30;;;;;;5023138;28;20311;-80
2023/05/09 03:05:09;;;;;;;6.07;3.80;;;7.70;92.50;;;;;;5024587;28;20718;-82
2023/05/09 03:07:37;;;;;;;4.73;3.33;;;7.70;93.20;;;;;;5023624;28;20232;-80
2023/05/09 03:10:04;;;;;;;5.47;3.87;;;7.70;93.30;;;;;;5023353;28;20232;-80
2023/05/09 03:12:31;;;;;;;4.47;3.83;;;7.70;93.60;;;;;;5022428;28;20224;-79
2023/05/09 03:15:00;;;;;;;5.30;3.50;;;7.70;93.80;;;;;;5023926;28;20230;-79
2023/05/09 03:17:27;;;;;;;4.50;3.37;;;7.60;94.00;;;;;;5023994;28;20220;-80
2023/05/09 03:19:55;;;;;;;3.90;3.50;;;7.60;93.50;;;;;;5027891;28;20273;-79
2023/05/09 03:22:22;;;;;;;5.10;3.70;;;7.60;93.80;;;;;;5025611;28;20255;-79
2023/05/09 03:24:58;;;;;;;6.17;3.33;;;7.60;94.00;;;;;;5038843;28;21868;-79
2023/05/09 03:27:25;;;;;;;5.80;3.63;;;7.60;94.10;;;;;;5020279;28;20314;-80
2023/05/09 03:29:52;;;;;;;6.07;3.67;;;7.50;94.40;;;;;;5025650;28;20299;-80
2023/05/09 03:32:21;;;;;;;5.90;3.90;;;7.50;94.30;;;;;;5022361;28;20239;-79
2023/05/09 03:34:48;;;;;;;4.70;3.70;;;7.50;94.50;;;;;;5043424;28;20228;-79
2023/05/09 03:37:15;;;;;;;4.07;3.67;;;7.50;94.60;;;;;;5022505;28;20223;-79
2023/05/09 03:39:42;;;;;;;4.63;3.40;;;7.50;94.90;;;;;;5024914;28;20223;-80
2023/05/09 03:42:09;;;;;;;3.90;3.47;;;7.50;95.00;;;;;;5041833;28;20228;-80
2023/05/09 03:44:36;;;;;;;4.83;3.90;;;7.40;95.10;;;;;;5025349;28;20274;-80
2023/05/09 03:47:03;;;;;;;5.03;4.00;;;7.40;95.40;;;;;;5042119;28;20227;-80
2023/05/09 03:49:37;;;;;;;6.43;4.27;;;7.40;96.40;;;;;;5018456;28;20232;-80
2023/05/09 03:52:05;;;;;;;5.27;3.60;;;7.40;96.40;;;;;;5023410;28;20247;-80
2023/05/09 03:54:33;;;;;;;4.80;3.60;;;7.40;96.40;;;;;;5023311;28;20222;-81
2023/05/09 03:57:00;;;;;;;4.13;3.50;;;7.40;96.40;;;;;;5024296;28;20721;-81
2023/05/09 03:59:27;;;;;;;5.40;3.90;;;7.40;96.70;;;;;;5041130;28;20302;-82
2023/05/09 04:01:54;;;;;;;6.27;3.97;;;7.40;96.60;;;;;;5025203;28;20462;-82
2023/05/09 04:04:24;;;;;;;4.90;3.70;;;7.40;96.60;;;;;;5019817;28;20238;-82
2023/05/09 04:06:52;;;;;;;7.73;4.00;;;7.40;96.90;;;;;;5021968;28;20244;-82
2023/05/09 04:09:19;;;;;;;5.73;4.00;;;7.40;97.60;;;;;;5030120;28;20614;-81
2023/05/09 04:11:47;;;;;;;5.83;3.80;;;7.40;97.60;;;;;;5022877;28;20229;-82
2023/05/09 04:14:16;;;;;;;4.77;4.10;;;7.40;97.70;;;;;;5018173;28;20219;-82
2023/05/09 04:16:43;;;;;;;4.53;3.83;;;7.40;97.70;;;;;;5040902;28;20270;-82
2023/05/09 04:19:10;;;;;;;5.17;3.70;;;7.50;98.00;;;;;;5023226;28;20770;-81
2023/05/09 04:21:38;;;;;;;5.67;3.90;;;7.50;97.60;;;;;;5023049;28;20649;-81
2023/05/09 04:24:07;;;;;;;4.20;3.80;;;7.50;97.80;;;;;;5023446;28;20306;-81
2023/05/09 04:26:46;;;;;;;6.70;4.00;;;7.50;98.00;;;;;;5020099;28;20223;-82
2023/05/09 04:29:16;;;;;;;4.40;3.97;;;7.50;98.30;;;;;;5030245;28;20898;-84
2023/05/09 04:31:49;;;;;;;7.17;3.80;;;7.50;98.30;;;;;;5014069;28;20224;-84
2023/05/09 04:34:16;;;;;;;5.20;3.80;;;7.50;98.20;;;;;;5021722;28;20383;-84
2023/05/09 04:36:43;;;;;;;5.33;3.93;;;7.50;98.40;;;;;;5022839;28;20216;-83
2023/05/09 04:39:11;;;;;;;5.80;4.20;;;7.50;98.40;;;;;;5023741;28;20222;-80
2023/05/09 04:41:43;;;;;;;6.20;4.10;;;7.50;98.80;;;;;;5019996;28;20771;-81
2023/05/09 04:44:10;;;;;;;7.63;4.30;;;7.60;98.70;;;;;;5026701;28;20734;-82
2023/05/09 04:46:37;;;;;;;5.83;4.13;;;7.50;99.50;;;;;;5025915;28;20215;-81
2023/05/09 04:49:04;;;;;;;5.03;4.37;;;7.60;98.90;;;;;;5041108;28;20246;-82
2023/05/09 04:51:31;;;;;;;5.57;3.83;;;7.60;98.90;;;;;;5022265;28;20382;-84
2023/05/09 04:53:57;;;;;;;4.57;3.80;;;7.60;99.30;;;;;;5024680;28;20220;-82
2023/05/09 04:56:31;;;;;;;6.07;4.20;;;7.70;99.10;;;;;;5024240;28;20653;-83
2023/05/09 04:58:59;;;;;;;5.90;4.20;;;7.70;99.40;;;;;;5024153;28;20831;-83
2023/05/09 05:01:26;;;;;;;6.03;4.10;;;7.70;99.20;;;;;;5024338;28;20224;-82
2023/05/09 05:03:54;;;;;;;5.30;4.23;;;7.80;99.30;;;;;;5022609;28;20216;-82
2023/05/09 05:06:21;;;;;;;5.17;4.00;;;7.80;99.10;;;;;;5042792;28;20230;-82
2023/05/09 05:08:48;;;;;;;5.40;4.27;;;7.80;99.30;;;;;;5028507;28;20723;-82
2023/05/09 05:11:16;;;;;;;4.93;4.13;;;7.90;99.20;;;;;;5020670;28;20226;-82
2023/05/09 05:13:45;;;;;;;8.60;4.57;;;7.90;99.50;;;;;;5023091;28;20299;-83
2023/05/09 05:16:12;;;;;;;5.47;4.30;;;8.00;99.60;;;;;;5016134;28;20235;-84
2023/05/09 05:18:39;;;;;;;5.67;4.00;;;8.00;99.40;;;;;;5027325;28;20226;-83
2023/05/09 05:21:06;;;;;;;8.00;4.00;;;8.10;99.30;;;;;;5017053;28;20248;-86
2023/05/09 05:23:34;;;;;;;4.80;4.30;;;8.00;99.40;;;;;;5023123;28;20215;-83
2023/05/09 05:26:01;;;;;;;6.20;3.97;;;8.20;99.40;;;;;;5023988;28;20239;-82
2023/05/09 05:28:28;;;;;;;5.93;4.50;;;8.20;99.70;;;;;;5022523;28;20801;-83
2023/05/09 05:30:56;;;;;;;6.03;4.60;;;8.20;99.50;;;;;;5038669;28;20250;-82
2023/05/09 05:33:23;;;;;;;7.07;4.50;;;8.30;99.50;;;;;;5025301;28;20867;-82
2023/05/09 05:35:50;;;;;;;4.83;4.30;;;8.40;99.50;;;;;;5020351;28;20220;-81
2023/05/09 05:38:17;;;;;;;5.03;4.03;;;8.40;99.50;;;;;;5024678;28;20243;-83
2023/05/09 05:40:48;;;;;;;5.87;4.53;;;8.40;99.50;;;;;;5026405;28;20640;-82
2023/05/09 05:43:15;;;;;;;5.03;4.43;;;8.40;99.60;;;;;;5021778;28;20690;-83
2023/05/09 05:45:42;;;;;;;4.60;4.10;;;8.50;99.40;;;;;;5038605;28;20818;-82
2023/05/09 05:48:15;;;;;;;5.60;4.30;;;8.60;99.30;;;;;;5025207;28;20769;-82
2023/05/09 05:50:42;;;;;;;4.43;4.03;;;8.60;99.40;;;;;;5022998;28;20219;-82
2023/05/09 05:53:10;;;;;;;4.63;4.20;;;8.70;99.30;;;;;;5024292;28;20226;-83
2023/05/09 05:55:37;;;;;;;4.10;3.70;;;8.70;99.20;;;;;;5028640;28;20229;-82
2023/05/09 05:58:05;;;;;;;5.40;4.20;;;8.80;99.30;;;;;;5024809;28;20235;-82
2023/05/09 06:00:31;;;;;;;5.67;3.93;;;8.90;99.10;;;;;;5028537;28;20399;-82
2023/05/09 06:03:03;;;;;;;6.00;4.73;;;8.90;99.40;;;;;;5026449;28;20227;-82
2023/05/09 06:05:43;;;;;;;6.73;5.03;;;9.00;99.30;;;;;;5028531;28;20841;-83
2023/05/09 06:08:11;;;;;;;5.10;4.20;;;9.10;99.30;;;;;;5039880;28;20309;-82
2023/05/09 06:10:37;;;;;;;6.63;4.27;;;9.20;99.20;;;;;;5043573;28;20246;-81
2023/05/09 06:13:04;;;;;;;5.93;4.70;;;9.20;98.80;;;;;;5026302;28;20235;-82
2023/05/09 06:15:31;;;;;;;5.47;4.30;;;9.30;98.90;;;;;;5027192;28;20235;-82
2023/05/09 06:17:58;;;;;;;6.93;4.20;;;9.40;98.80;;;;;;5024921;28;20273;-84
2023/05/09 06:20:26;;;;;;;5.90;4.20;;;9.50;98.60;;;;;;5037558;28;20238;-84
2023/05/09 06:22:54;;;;;;;6.23;4.10;;;9.60;98.40;;;;;;5021615;28;20227;-83
2023/05/09 06:25:20;;;;;;;5.63;3.93;;;9.70;98.40;;;;;;5028421;28;20223;-83
2023/05/09 06:27:47;;;;;;;6.80;4.43;;;9.80;98.50;;;;;;5044516;28;20223;-83
2023/05/09 06:30:14;;;;;;;5.57;4.43;;;9.80;98.50;;;;;;5046436;28;20232;-83
2023/05/09 06:32:41;;;;;;;7.07;4.50;;;10.00;98.40;;;;;;5047309;28;20608;-83
2023/05/09 06:35:08;;;;;;;7.47;4.40;;;10.00;98.60;;;;;;5042289;28;20237;-83
2023/05/09 06:37:34;;;;;;;5.60;4.40;;;10.10;98.40;;;;;;5024070;28;20223;-83
2023/05/09 06:40:03;;;;;;;5.07;4.03;;;10.20;98.20;;;;;;5024161;28;20297;-83
2023/05/09 06:42:31;;;;;;;5.67;4.07;;;10.40;98.20;;;;;;5037397;28;20321;-84
2023/05/09 06:44:58;;;;;;;6.20;4.07;;;10.60;98.10;;;;;;5042110;28;20283;-83
2023/05/09 06:47:24;;;;;;;6.07;4.03;;;10.80;97.70;;;;;;5042775;28;21001;-83
2023/05/09 06:49:51;;;;;;;11.13;4.30;;;11.00;97.20;;;;;;5024142;28;20725;-83
2023/05/09 06:52:20;;;;;;;5.47;4.00;;;11.20;97.20;;;;;;5019191;28;20229;-83
2023/05/09 06:54:47;;;;;;;6.97;4.40;;;11.40;96.80;;;;;;5043587;28;20217;-83
2023/05/09 06:57:14;;;;;;;4.43;4.00;;;11.60;97.00;;;;;;5041630;28;20220;-83
2023/05/09 06:59:43;;;;;;;4.17;3.73;;;11.80;96.40;;;;;;5041472;28;20237;-83
2023/05/09 07:02:10;;;;;;;5.43;3.80;;;12.00;96.50;;;;;;5044245;28;20861;-83
2023/05/09 07:04:37;;;;;;;4.90;3.90;;;12.30;96.70;;;;;;5026129;28;20229;-81
2023/05/09 07:07:03;;;;;;;8.10;4.07;;;12.60;96.90;;;;;;5041977;28;20230;-81
2023/05/09 07:09:30;;;;;;;5.07;3.87;;;13.10;96.70;;;;;;5021440;28;20239;-81
2023/05/09 07:11:57;;;;;;;5.33;4.27;;;13.60;95.20;;;;;;5025315;28;20762;-80
2023/05/09 07:14:25;;;;;;;5.23;3.80;;;14.20;95.60;;;;;;5020236;28;20782;-81
2023/05/09 07:16:51;;;;;;;4.67;3.77;;;14.90;94.80;;;;;;5025131;28;20220;-82
2023/05/09 07:19:18;;;;;;;4.88;3.85;;;15.60;93.70;;;;;;5025922;28;20216;-82
2023/05/09 07:21:45;;;;;;;3.95;3.53;;;16.20;90.90;;;;;;5044322;28;20322;-82
2023/05/09 07:24:11;;;;;;;4.72;3.50;;;16.80;90.70;;;;;;5025789;28;20220;-82
2023/05/09 07:26:38;;;;;;;6.63;3.78;;;17.40;89.80;;;;;;5047855;28;20224;-82
2023/05/09 07:29:05;;;;;;;4.93;3.30;;;17.80;86.90;;;;;;5028654;28;20238;-82
2023/05/09 07:31:33;;;;;;;7.63;3.42;;;18.20;87.00;;;;;;5043525;28;20235;-82
2023/05/09 07:33:59;;;;;;;4.13;3.35;;;18.70;84.40;;;;;;5044027;28;20721;-82
2023/05/09 07:36:26;;;;;;;4.45;3.17;;;18.90;80.70;;;;;;5029725;28;20882;-81
2023/05/09 07:38:53;;;;;;;6.75;3.38;;;19.20;80.20;;;;;;5027504;28;20809;-81
2023/05/09 07:41:20;;;;;;;3.83;3.47;;;19.50;77.20;;;;;;5027538;28;20231;-80
2023/05/09 07:43:46;;;;;;;7.55;3.42;;;19.70;78.20;;;;;;5046511;28;20277;-79
2023/05/09 07:46:13;;;;;;;3.20;2.90;;;19.90;74.90;;;;;;5048920;28;20226;-81
2023/05/09 07:48:41;;;;;;;4.13;3.08;;;20.00;74.00;;;;;;5040399;28;20223;-81
2023/05/09 07:51:08;;;;;;;2.97;2.67;;;20.10;71.00;;;;;;5042191;28;20813;-81
2023/05/09 07:53:35;;;;;;;4.15;2.90;;;20.20;72.20;;;;;;5045600;28;20231;-81
2023/05/09 07:56:01;;;;;;;4.45;3.15;;;20.20;69.90;;;;;;5030487;28;20234;-82
2023/05/09 07:58:28;;;;;;;5.28;3.20;;;20.20;69.50;;;;;;5045015;28;20228;-81
2023/05/09 08:00:56;;;;;;;5.13;3.08;;;20.30;70.20;;;;;;5043811;28;21143;-81
2023/05/09 08:03:23;;;;;;;3.83;3.33;;;20.20;67.40;;;;;;5029343;28;20227;-81
2023/05/09 08:05:53;;;;;;;3.20;2.90;;;20.20;66.90;;;;;;5050395;28;20227;-81
2023/05/09 08:08:20;;;;;;;3.50;2.90;;;20.20;67.80;;;;;;5028282;28;20278;-81
2023/05/09 08:10:46;;;;;;;3.50;3.20;;;20.20;68.60;;;;;;5046292;28;20232;-81
2023/05/09 08:13:13;;;;;;;3.33;3.03;;;20.30;68.30;;;;;;5028264;28;20225;-81
2023/05/09 08:15:40;;;;;;;4.32;2.72;;;20.50;68.20;;;;;;5045224;28;20269;-80
2023/05/09 08:18:06;;;;;;;4.43;3.30;;;20.70;68.20;;;;;;5045226;28;20599;-79
2023/05/09 08:20:33;;;;;;;3.50;2.88;;;20.90;69.00;;;;;;5027793;28;20228;-79
2023/05/09 08:23:01;;;;;;;4.72;3.10;;;21.10;67.60;;;;;;5048163;28;20239;-79
2023/05/09 08:25:28;;;;;;;3.60;2.78;;;21.40;66.30;;;;;;5031657;28;20224;-80
2023/05/09 08:27:55;;;;;;;3.67;2.80;;;21.70;65.00;;;;;;5053135;28;20275;-79
2023/05/09 08:30:21;;;;;;;3.80;2.90;;;22.00;66.90;;;;;;5051546;28;20220;-80
2023/05/09 08:32:48;;;;;;;3.00;2.70;;;22.30;65.50;;;;;;5044907;28;20223;-80
2023/05/09 08:35:15;;;;;;;3.70;2.63;;;22.60;66.50;;;;;;5047726;28;20230;-80
2023/05/09 08:37:41;;;;;;;6.20;3.05;;;23.00;64.40;;;;;;5048378;28;20709;-80
2023/05/09 08:40:10;;;;;;;3.63;2.53;;;23.20;62.00;;;;;;5049834;28;20220;-79
2023/05/09 08:42:38;;;;;;;4.10;2.40;;;23.50;62.00;;;;;;5030596;28;20461;-79
2023/05/09 08:45:11;;;;;;;3.50;2.80;;;23.80;59.70;;;;;;5041461;28;20678;-78
2023/05/09 08:47:38;;;;;;;3.90;2.60;;;24.00;61.50;;;;;;5032286;28;20228;-80
2023/05/09 08:50:05;;;;;;;3.60;2.92;;;24.10;57.90;;;;;;5033987;28;20227;-80
2023/05/09 08:52:32;;;;;;;2.67;2.40;;;24.10;58.20;;;;;;5033409;28;20796;-79
2023/05/09 08:54:59;;;;;;;3.25;2.60;;;24.20;57.10;;;;;;5050367;28;20228;-79
2023/05/09 08:57:27;;;;;;;4.55;2.88;;;24.20;57.30;;;;;;5050166;28;20216;-79
2023/05/09 08:59:56;;;;;;;3.53;2.80;;;24.30;58.80;;;;;;5050942;28;20239;-80
2023/05/09 09:02:23;;;;;;;4.15;2.75;;;24.20;56.60;;;;;;5046944;28;20216;-82
2023/05/09 09:04:50;;;;;;;3.95;2.60;;;24.10;56.00;;;;;;5033270;28;20224;-80
2023/05/09 09:07:17;;;;;;;3.97;2.78;;;24.10;56.20;;;;;;5029366;28;20590;-80
2023/05/09 09:09:45;;;;;;;5.07;2.30;;;24.00;56.50;;;;;;5048876;28;20228;-80
2023/05/09 09:12:15;;;;;;;3.97;2.97;;;24.00;57.30;;;;;;5047693;28;20224;-80
2023/05/09 09:14:48;;;;;;;4.70;2.60;;;24.10;56.70;;;;;;5033051;28;20859;-82
2023/05/09 09:17:19;;;;;;;4.03;2.25;;;24.20;56.30;;;;;;5024840;28;20220;-80
2023/05/09 09:19:49;;;;;;;3.35;2.60;;;24.20;55.50;;;;;;5050406;28;20292;-81
2023/05/09 09:22:18;;;;;;;4.22;2.60;;;24.30;56.60;;;;;;5032796;28;20228;-81
2023/05/09 09:24:45;;;;;;;4.20;2.85;;;24.50;56.60;;;;;;5035383;28;20231;-82
2023/05/09 09:27:12;;;;;;;3.65;2.60;;;24.50;55.80;;;;;;5034765;28;20235;-80
2023/05/09 09:29:39;;;;;;;4.78;2.92;;;24.80;56.30;;;;;;5047937;28;20228;-82
2023/05/09 09:32:07;;;;;;;3.65;2.22;;;25.10;55.80;;;;;;5044255;28;20229;-82
2023/05/09 09:34:34;;;;;;;3.35;2.60;;;25.30;54.80;;;;;;5055254;28;20307;-81
2023/05/09 09:37:01;;;;;;;5.43;2.58;;;25.40;53.30;;;;;;5048356;28;20372;-81
2023/05/09 09:39:27;;;;;;;3.05;2.28;;;25.30;50.70;;;;;;5045944;28;20227;-81
2023/05/09 09:41:54;;;;;;;3.20;2.67;;;25.10;50.40;;;;;;5047221;28;20240;-81
2023/05/09 09:44:22;;;;;;;2.50;2.30;;;25.00;50.70;;;;;;5037199;28;20224;-81
2023/05/09 09:46:50;;;;;;;5.60;2.58;;;24.90;51.70;;;;;;5047686;28;20235;-81
2023/05/09 09:49:20;;;;;;;6.68;2.72;;;24.60;50.30;;;;;;5048889;28;20235;-81
2023/05/09 09:51:50;;;;;;;5.03;2.40;;;24.50;51.40;;;;;;5028189;28;20226;-81
2023/05/09 09:54:17;;;;;;;2.30;2.10;;;24.40;51.90;;;;;;5050661;28;20227;-81
2023/05/09 09:56:45;;;;;;;3.03;2.10;;;24.40;52.00;;;;;;5048307;28;20227;-81
2023/05/09 09:59:13;;;;;;;3.92;2.25;;;24.20;51.50;;;;;;5047688;28;20212;-81
2023/05/09 10:01:58;;;;;;;3.47;2.15;;;24.10;51.60;;;;;;5027321;28;20231;-82
2023/05/09 10:04:29;;;;;;;2.75;2.38;;;24.20;52.80;;;;;;5047176;28;20247;-81
2023/05/09 10:06:57;;;;;;;4.60;2.47;;;24.10;50.90;;;;;;5046885;28;20782;-81
2023/05/09 10:09:24;;;;;;;5.40;2.40;;;24.30;51.30;;;;;;5031489;28;20223;-81
2023/05/09 10:11:52;;;;;;;3.97;2.60;;;24.20;50.00;;;;;;5032836;28;20223;-81
2023/05/09 10:14:24;;;;;;;8.70;2.55;;;24.10;50.00;;;;;;5032410;28;20232;-80
2023/05/09 10:16:58;;;;;;;4.15;2.20;;;24.00;51.10;;;;;;5018259;28;20898;-80
2023/05/09 10:19:28;;;;;;;4.30;2.22;;;23.90;49.80;;;;;;5042844;28;20227;-80
2023/05/09 10:21:56;;;;;;;2.63;2.35;;;23.80;49.70;;;;;;5021049;28;20933;-80
2023/05/09 10:24:29;;;;;;;3.20;2.10;;;23.80;50.20;;;;;;5046945;28;20924;-80
2023/05/09 10:27:02;;;;;;;5.90;2.50;;;23.80;49.80;;;;;;5026461;28;20232;-80
2023/05/09 10:29:32;;;;;;;13.70;2.53;;;23.80;50.50;;;;;;5046976;28;20845;-80
2023/05/09 10:32:01;;;;;;;4.75;2.25;;;23.90;50.80;;;;;;5052136;28;20706;-80
2023/05/09 10:34:33;;;;;;;3.85;2.30;;;24.00;51.10;;;;;;5045250;28;20232;-80
2023/05/09 10:37:01;;;;;;;3.70;2.38;;;24.20;50.50;;;;;;5031310;28;20224;-81
2023/05/09 10:39:29;;;;;;;2.88;2.30;;;24.30;50.30;;;;;;5044360;28;20224;-80
2023/05/09 10:41:58;;;;;;;4.63;2.50;;;24.60;49.50;;;;;;5041730;28;20639;-80
2023/05/09 10:44:25;;;;;;;4.22;2.20;;;24.70;48.30;;;;;;5035317;28;20301;-81
2023/05/09 10:46:52;;;;;;;5.00;2.35;;;24.80;48.80;;;;;;5045787;28;20266;-81
2023/05/09 10:49:20;;;;;;;2.45;2.00;;;24.70;48.90;;;;;;5028394;28;20228;-81
2023/05/09 10:51:49;;;;;;;2.60;2.22;;;24.80;48.90;;;;;;5043977;28;20243;-81
2023/05/09 10:54:27;;;;;;;3.65;2.10;;;24.70;47.90;;;;;;5036340;28;20250;-81
2023/05/09 10:56:54;;;;;;;3.95;2.55;;;24.80;48.00;;;;;;5041825;28;20729;-81
2023/05/09 10:59:36;;;;;;;3.08;2.13;;;25.00;48.40;;;;;;5046362;28;20216;-81
2023/05/09 11:02:03;;;;;;;2.42;2.17;;;25.10;47.90;;;;;;5044285;28;20259;-81
2023/05/09 11:04:31;;;;;;;6.10;2.35;;;25.20;47.20;;;;;;5031567;28;20223;-81
2023/05/09 11:07:00;;;;;;;2.22;2.03;;;25.00;45.20;;;;;;5053146;28;20762;-81
2023/05/09 11:09:32;;;;;;;4.13;1.95;;;25.00;45.20;;;;;;5023721;28;20231;-81
2023/05/09 11:12:01;;;;;;;3.85;2.28;;;25.00;46.40;;;;;;5030384;28;20226;-81
2023/05/09 11:14:31;;;;;;;5.32;2.03;;;24.80;45.40;;;;;;5044033;28;20231;-81
2023/05/09 11:16:58;;;;;;;3.00;1.80;;;24.70;45.80;;;;;;5028183;28;20231;-81
2023/05/09 11:19:35;;;;;;;5.22;2.10;;;24.60;46.30;;;;;;5042468;28;20220;-80
2023/05/09 11:22:12;;;;;;;3.15;1.95;;;24.40;46.10;;;;;;5029307;28;20263;-81
2023/05/09 11:24:39;;;;;;;4.40;2.15;;;24.20;45.20;;;;;;5047451;28;20216;-81
2023/05/09 11:27:15;;;;;;;3.72;2.42;;;24.20;46.10;;;;;;5028659;28;20231;-81
2023/05/09 11:29:49;;;;;;;5.75;2.28;;;24.10;44.40;;;;;;5027080;28;20230;-81
2023/05/09 11:32:16;;;;;;;3.97;2.10;;;24.00;45.50;;;;;;5042010;28;20906;-81
2023/05/09 11:34:44;;;;;;;4.47;2.40;;;23.90;46.30;;;;;;5027249;28;20216;-81
2023/05/09 11:37:14;;;;;;;2.60;2.15;;;23.80;46.50;;;;;;5023665;28;20216;-81
2023/05/09 11:39:58;;;;;;;2.63;2.22;;;23.60;45.40;;;;;;5040632;28;20220;-81
2023/05/09 11:42:25;;;;;;;2.47;1.90;;;23.70;47.10;;;;;;5026622;28;20243;-81
2023/05/09 11:44:52;;;;;;;2.40;2.20;;;23.70;46.50;;;;;;5046838;28;20311;-81
2023/05/09 11:47:19;;;;;;;4.18;2.13;;;23.70;46.50;;;;;;5026610;28;20253;-81
2023/05/09 11:49:47;;;;;;;4.18;2.00;;;23.80;47.60;;;;;;5028747;28;20766;-81
2023/05/09 11:52:15;;;;;;;4.00;2.17;;;23.90;47.50;;;;;;5025844;28;20784;-81
2023/05/09 11:54:42;;;;;;;2.40;2.20;;;24.10;47.20;;;;;;5032643;28;20220;-82
2023/05/09 11:57:09;;;;;;;5.15;2.15;;;24.10;46.30;;;;;;5049333;28;20314;-81
2023/05/09 11:59:36;;;;;;;2.78;2.17;;;24.10;46.60;;;;;;5026942;28;20250;-81
2023/05/09 12:02:04;;;;;;;2.88;2.10;;;24.10;45.20;;;;;;5042174;28;20270;-81
2023/05/09 12:04:31;;;;;;;4.53;1.98;;;23.90;45.40;;;;;;5030601;28;20225;-81
2023/05/09 12:06:59;;;;;;;3.97;2.00;;;23.80;45.70;;;;;;5051348;28;20220;-81
2023/05/09 12:09:30;;;;;;;2.95;1.88;;;23.70;46.40;;;;;;5028767;28;20239;-81
2023/05/09 12:11:57;;;;;;;2.88;2.22;;;23.70;47.10;;;;;;5054674;28;20227;-81
2023/05/09 12:14:27;;;;;;;3.47;2.03;;;23.80;48.10;;;;;;5028182;28;20216;-81
2023/05/09 12:16:53;;;;;;;3.47;2.40;;;24.00;47.90;;;;;;5034743;28;20271;-81
2023/05/09 12:19:21;;;;;;;3.38;2.20;;;24.10;47.00;;;;;;5046137;28;20224;-81
2023/05/09 12:21:47;;;;;;;2.30;2.10;;;24.20;46.90;;;;;;5048454;28;20239;-81
2023/05/09 12:24:19;;;;;;;2.70;2.13;;;24.40;47.40;;;;;;5031163;28;20226;-81
2023/05/09 12:26:47;;;;;;;3.50;2.17;;;24.40;47.30;;;;;;5033693;28;20226;-81
2023/05/09 12:29:14;;;;;;;2.65;2.20;;;24.30;47.00;;;;;;5047216;28;20713;-81
2023/05/09 12:31:41;;;;;;;4.35;2.67;;;24.30;47.00;;;;;;5030003;28;20310;-81
2023/05/09 12:34:09;;;;;;;3.30;2.20;;;24.30;45.60;;;;;;5029523;28;20234;-81
2023/05/09 12:36:36;;;;;;;3.97;2.10;;;24.20;45.40;;;;;;5033960;28;20230;-81
2023/05/09 12:39:09;;;;;;;3.28;1.90;;;24.10;46.10;;;;;;5047044;28;20220;-81
2023/05/09 12:41:35;;;;;;;5.53;2.20;;;24.10;46.50;;;;;;5045387;28;20776;-81
2023/05/09 12:44:04;;;;;;;3.30;1.95;;;24.00;46.70;;;;;;5047564;28;20250;-82
2023/05/09 12:46:31;;;;;;;4.07;2.17;;;23.90;45.80;;;;;;5028896;28;20228;-81
2023/05/09 12:48:57;;;;;;;4.35;2.00;;;23.80;45.80;;;;;;5031928;28;20709;-81
2023/05/09 12:51:24;;;;;;;5.55;2.45;;;23.70;47.00;;;;;;5032978;28;20243;-81
2023/05/09 12:53:51;;;;;;;4.00;2.30;;;23.60;47.00;;;;;;5047069;28;20243;-81
2023/05/09 12:56:20;;;;;;;5.60;2.00;;;23.40;46.00;;;;;;5024467;28;20886;-82
2023/05/09 12:58:51;;;;;;;3.85;2.53;;;23.30;46.90;;;;;;5047595;28;20237;-82
2023/05/09 13:01:19;;;;;;;4.10;2.58;;;23.30;48.30;;;;;;5028926;28;20220;-81